Time;durP1;ratioP1;P1;durP2;ratioP2;P2;SDS_P1;SDS_P2;PMS_P1;PMS_P2;Temp;Humidity;BMP_temperature;BMP_pressure;BME280_temperature;BME280_humidity;BME280_pressure;Samples;Min_cycle;Max_cycle;Signal;HPM_P1;HPM_P2
2021/03/31 00:00:34;;;;;;;13.33;2.60;;;24.90;97.30;;;;;;5072981;28;20377;-83
2021/03/31 00:03:05;;;;;;;8.75;2.42;;;25.40;95.00;;;;;;5082465;28;20483;-83
2021/03/31 00:05:32;;;;;;;11.30;2.53;;;25.20;93.10;;;;;;5090138;28;20371;-83
2021/03/31 00:07:59;;;;;;;7.15;2.22;;;24.60;92.70;;;;;;5110598;28;20386;-83
2021/03/31 00:10:39;;;;;;;10.40;2.50;;;24.10;94.10;;;;;;5109227;28;20374;-82
2021/03/31 00:13:07;;;;;;;12.27;2.72;;;24.40;95.40;;;;;;5092701;28;20452;-83
2021/03/31 00:15:34;;;;;;;9.80;2.40;;;24.10;93.10;;;;;;5093214;28;20856;-83
2021/03/31 00:18:01;;;;;;;10.53;2.50;;;24.30;95.20;;;;;;5111134;28;20793;-82
2021/03/31 00:20:28;;;;;;;10.35;2.15;;;24.20;94.30;;;;;;5087748;28;20438;-82
2021/03/31 00:22:55;;;;;;;12.90;2.53;;;24.40;95.40;;;;;;5100949;28;20379;-83
2021/03/31 00:25:22;;;;;;;8.50;2.15;;;25.20;96.90;;;;;;5080945;28;20375;-82
2021/03/31 00:27:49;;;;;;;10.27;2.42;;;25.90;90.90;;;;;;5104444;28;20942;-83
2021/03/31 00:30:17;;;;;;;10.60;2.45;;;25.70;91.30;;;;;;5099466;28;20386;-82
2021/03/31 00:32:44;;;;;;;7.63;2.28;;;25.60;90.70;;;;;;5110676;28;20378;-83
2021/03/31 00:35:12;;;;;;;8.40;2.33;;;25.40;91.20;;;;;;5080328;28;20396;-83
2021/03/31 00:37:39;;;;;;;10.20;2.70;;;25.70;89.80;;;;;;5097546;28;20456;-82
2021/03/31 00:40:11;;;;;;;8.52;2.40;;;25.20;90.80;;;;;;5109012;28;20827;-82
2021/03/31 00:42:38;;;;;;;8.13;2.15;;;25.20;91.30;;;;;;5110741;28;20363;-82
2021/03/31 00:45:08;;;;;;;15.68;2.45;;;24.90;90.90;;;;;;5092921;28;20384;-82
2021/03/31 00:47:36;;;;;;;16.57;2.77;;;24.50;91.60;;;;;;5090189;28;20418;-82
2021/03/31 00:50:06;;;;;;;10.10;2.40;;;23.40;92.90;;;;;;5081459;28;20371;-82
2021/03/31 00:52:33;;;;;;;12.47;2.60;;;22.10;96.80;;;;;;5104863;28;20471;-81
2021/03/31 00:55:01;;;;;;;10.63;2.50;;;21.90;97.80;;;;;;5110032;28;20379;-81
2021/03/31 00:57:28;;;;;;;9.85;2.17;;;22.60;98.30;;;;;;5110293;28;20781;-81
2021/03/31 00:59:55;;;;;;;9.25;2.10;;;22.80;98.70;;;;;;5107613;28;20384;-83
2021/03/31 01:02:22;;;;;;;9.90;2.20;;;23.50;97.00;;;;;;5103429;28;20453;-82
2021/03/31 01:04:49;;;;;;;11.15;2.47;;;23.70;95.50;;;;;;5090845;28;20395;-83
2021/03/31 01:07:17;;;;;;;11.20;2.17;;;23.90;93.30;;;;;;5102442;28;20402;-82
2021/03/31 01:09:44;;;;;;;10.15;2.20;;;24.10;94.10;;;;;;5079597;28;20380;-82
2021/03/31 01:12:23;;;;;;;14.32;2.50;;;23.60;93.40;;;;;;5083714;28;20390;-83
2021/03/31 01:15:12;;;;;;;10.32;2.17;;;23.00;94.50;;;;;;5090932;28;20855;-81
2021/03/31 01:18:11;;;;;;;13.30;1.90;;;22.60;96.70;;;;;;5103380;28;20414;-80
2021/03/31 01:20:44;;;;;;;8.93;2.03;;;22.10;96.60;;;;;;5099653;28;20391;-82
2021/03/31 01:23:47;;;;;;;9.45;2.03;;;21.70;98.10;;;;;;5102938;28;20375;-83
2021/03/31 01:26:30;;;;;;;8.70;2.30;;;21.40;99.90;;;;;;5095907;28;20492;-83
2021/03/31 01:29:19;;;;;;;8.73;2.67;;;21.30;99.70;;;;;;5093642;28;20380;-83
2021/03/31 01:31:46;;;;;;;9.85;2.40;;;21.30;98.20;;;;;;5099222;28;20475;-82
2021/03/31 01:34:41;;;;;;;8.27;1.90;;;21.30;99.50;;;;;;5088314;28;20669;-81
2021/03/31 01:37:29;;;;;;;8.25;2.10;;;21.50;98.60;;;;;;5077634;28;20367;-84
2021/03/31 01:39:58;;;;;;;9.82;1.85;;;21.50;98.10;;;;;;5098407;28;20443;-82
2021/03/31 01:42:28;;;;;;;10.27;1.70;;;21.20;98.10;;;;;;5099202;28;20467;-83
2021/03/31 01:45:04;;;;;;;7.70;1.50;;;20.80;97.90;;;;;;5095519;28;20388;-83
2021/03/31 01:47:38;;;;;;;8.23;2.17;;;20.40;99.00;;;;;;5099062;28;20382;-83
2021/03/31 01:50:06;;;;;;;9.57;1.88;;;20.30;99.90;;;;;;5103132;28;20819;-82
2021/03/31 01:52:36;;;;;;;7.45;1.73;;;20.50;98.90;;;;;;5093537;28;20392;-84
2021/03/31 01:55:07;;;;;;;7.00;1.75;;;20.70;98.30;;;;;;5089843;28;20387;-84
2021/03/31 01:57:35;;;;;;;5.65;1.52;;;20.90;96.80;;;;;;5095611;28;20417;-83
2021/03/31 02:00:05;;;;;;;10.35;2.13;;;21.00;97.90;;;;;;5107792;28;20394;-82
2021/03/31 02:02:33;;;;;;;8.05;1.85;;;21.10;97.40;;;;;;5071273;28;20746;-82
2021/03/31 02:05:01;;;;;;;7.80;1.77;;;21.00;97.60;;;;;;5077602;28;20808;-82
2021/03/31 02:07:29;;;;;;;6.22;1.55;;;20.90;97.90;;;;;;5082942;28;20444;-80
2021/03/31 02:09:56;;;;;;;10.10;1.60;;;20.60;98.00;;;;;;5101629;28;20399;-82
2021/03/31 02:12:26;;;;;;;9.43;1.70;;;20.70;98.80;;;;;;5105300;28;20439;-79
2021/03/31 02:14:55;;;;;;;6.47;1.80;;;20.70;96.90;;;;;;5071412;28;20787;-83
2021/03/31 02:17:29;;;;;;;8.43;1.70;;;20.60;97.10;;;;;;5094776;28;20518;-81
2021/03/31 02:19:57;;;;;;;9.43;2.03;;;20.60;97.60;;;;;;5074985;28;20394;-81
2021/03/31 02:22:27;;;;;;;8.82;1.70;;;20.70;97.90;;;;;;5109297;28;20393;-81
2021/03/31 02:24:55;;;;;;;6.53;1.60;;;20.80;97.80;;;;;;5097003;28;20381;-80
2021/03/31 02:27:23;;;;;;;7.32;1.77;;;20.90;97.20;;;;;;5090261;28;20381;-80
2021/03/31 02:29:50;;;;;;;6.53;1.45;;;21.10;96.50;;;;;;5078350;28;20382;-82
2021/03/31 02:32:21;;;;;;;7.03;1.60;;;21.20;96.80;;;;;;5105803;28;20466;-80
2021/03/31 02:34:52;;;;;;;7.40;1.77;;;21.10;96.10;;;;;;5104555;28;21474;-81
2021/03/31 02:37:20;;;;;;;9.95;1.92;;;21.10;96.90;;;;;;5085098;28;21213;-81
2021/03/31 02:39:50;;;;;;;5.43;1.38;;;20.70;95.90;;;;;;5100503;28;20408;-80
2021/03/31 02:42:19;;;;;;;5.60;1.40;;;20.60;96.20;;;;;;5081580;28;20751;-80
2021/03/31 02:44:50;;;;;;;5.60;1.80;;;20.70;96.10;;;;;;5077181;28;20435;-80
2021/03/31 02:47:23;;;;;;;8.02;1.65;;;20.80;97.20;;;;;;5083782;28;20388;-80
2021/03/31 02:49:53;;;;;;;6.97;1.45;;;20.60;95.20;;;;;;5072752;28;20403;-79
2021/03/31 02:52:22;;;;;;;6.03;1.30;;;20.70;94.50;;;;;;5081289;28;20467;-79
2021/03/31 02:54:51;;;;;;;8.75;1.48;;;20.70;95.40;;;;;;5103191;28;20449;-78
2021/03/31 02:57:20;;;;;;;8.55;1.60;;;20.70;95.60;;;;;;5069429;28;20385;-79
2021/03/31 02:59:48;;;;;;;6.15;0.98;;;20.80;94.30;;;;;;5068307;28;20378;-79
2021/03/31 03:02:20;;;;;;;4.40;1.40;;;20.80;93.60;;;;;;5084178;28;20425;-79
2021/03/31 03:04:51;;;;;;;4.73;1.00;;;20.90;93.00;;;;;;5092224;28;20403;-79
2021/03/31 03:07:19;;;;;;;4.47;1.13;;;20.90;94.20;;;;;;5073341;28;20378;-79
2021/03/31 03:09:47;;;;;;;6.80;1.48;;;20.90;93.50;;;;;;5071793;28;20421;-80
2021/03/31 03:12:15;;;;;;;5.20;1.30;;;20.80;92.00;;;;;;5070365;28;20374;-79
2021/03/31 03:14:47;;;;;;;5.18;1.20;;;20.80;92.90;;;;;;5088759;28;20383;-80
2021/03/31 03:17:15;;;;;;;4.97;1.20;;;20.90;93.80;;;;;;5092179;28;20368;-78
2021/03/31 03:19:42;;;;;;;5.90;1.15;;;21.00;91.00;;;;;;5081869;28;20431;-78
2021/03/31 03:22:10;;;;;;;5.53;1.40;;;21.10;92.20;;;;;;5080446;28;20771;-78
2021/03/31 03:24:37;;;;;;;4.93;1.30;;;21.10;92.70;;;;;;5081665;28;20527;-80
2021/03/31 03:27:05;;;;;;;8.77;1.52;;;21.10;93.30;;;;;;5087034;28;20381;-80
2021/03/31 03:29:33;;;;;;;7.63;1.40;;;21.20;92.40;;;;;;5086172;28;20468;-80
2021/03/31 03:32:02;;;;;;;6.47;1.48;;;21.10;93.30;;;;;;5089978;28;20380;-80
2021/03/31 03:34:29;;;;;;;4.53;1.20;;;21.10;92.30;;;;;;5082312;28;20405;-79
2021/03/31 03:36:56;;;;;;;7.55;1.40;;;21.10;91.30;;;;;;5070299;28;20374;-79
2021/03/31 03:39:24;;;;;;;8.30;1.67;;;21.20;91.70;;;;;;5089651;28;20405;-78
2021/03/31 03:41:51;;;;;;;4.15;1.10;;;21.20;94.40;;;;;;5092470;28;20418;-78
2021/03/31 03:44:18;;;;;;;4.80;1.50;;;21.40;93.20;;;;;;5104220;28;20729;-77
2021/03/31 03:46:48;;;;;;;5.10;1.15;;;21.50;92.60;;;;;;5093455;28;20379;-77
2021/03/31 03:49:15;;;;;;;7.05;1.20;;;21.50;91.30;;;;;;5111141;28;20375;-78
2021/03/31 03:51:42;;;;;;;6.18;1.30;;;21.50;91.50;;;;;;5092012;28;20390;-79
2021/03/31 03:54:12;;;;;;;6.45;1.33;;;21.40;91.30;;;;;;5110514;28;20375;-77
2021/03/31 03:56:40;;;;;;;7.07;1.60;;;21.50;91.50;;;;;;5111804;28;20843;-79
2021/03/31 03:59:24;;;;;;;7.78;1.50;;;21.50;91.30;;;;;;5092968;28;20402;-78
2021/03/31 04:01:52;;;;;;;7.22;1.33;;;21.40;90.40;;;;;;5111379;28;20371;-77
2021/03/31 04:04:22;;;;;;;4.35;1.33;;;21.20;91.60;;;;;;5111593;28;20363;-78
2021/03/31 04:06:50;;;;;;;5.90;1.10;;;21.20;93.00;;;;;;5111438;28;20378;-78
2021/03/31 04:09:17;;;;;;;6.47;1.27;;;21.30;92.70;;;;;;5111416;28;20386;-78
2021/03/31 04:11:46;;;;;;;5.90;1.43;;;21.30;92.30;;;;;;5111217;28;20490;-78
2021/03/31 04:14:14;;;;;;;7.05;1.42;;;21.30;92.40;;;;;;5110625;28;20764;-77
2021/03/31 04:16:43;;;;;;;7.47;1.40;;;21.30;92.80;;;;;;5111293;28;20374;-79
2021/03/31 04:19:15;;;;;;;6.00;1.20;;;21.40;90.30;;;;;;5110983;28;20402;-77
2021/03/31 04:21:42;;;;;;;3.33;1.05;;;21.40;91.20;;;;;;5092670;28;20439;-76
2021/03/31 04:24:14;;;;;;;5.70;1.15;;;21.50;89.20;;;;;;5111035;28;20421;-77
2021/03/31 04:26:42;;;;;;;5.13;1.38;;;21.50;90.90;;;;;;5110898;28;20367;-77
2021/03/31 04:29:12;;;;;;;3.93;1.33;;;21.50;89.10;;;;;;5110794;28;20371;-78
2021/03/31 04:31:41;;;;;;;3.70;0.80;;;21.50;86.40;;;;;;5110616;28;20371;-77
2021/03/31 04:34:09;;;;;;;5.53;1.33;;;21.40;89.30;;;;;;5110361;28;20374;-78
2021/03/31 04:36:36;;;;;;;5.10;1.30;;;21.50;85.80;;;;;;5099280;28;20382;-78
2021/03/31 04:39:05;;;;;;;4.90;1.00;;;21.30;84.90;;;;;;5110224;28;20410;-78
2021/03/31 04:41:34;;;;;;;4.25;0.90;;;21.20;83.00;;;;;;5079487;28;20392;-77
2021/03/31 04:44:02;;;;;;;4.47;1.10;;;21.10;85.80;;;;;;5100992;28;20376;-78
2021/03/31 04:46:29;;;;;;;3.80;0.90;;;21.10;85.60;;;;;;5090786;28;20483;-78
2021/03/31 04:48:56;;;;;;;4.43;1.00;;;21.20;85.70;;;;;;5091271;28;20418;-78
2021/03/31 04:51:23;;;;;;;1.58;0.82;;;21.20;81.10;;;;;;5107664;28;20482;-78
2021/03/31 04:53:50;;;;;;;5.05;1.15;;;21.20;81.70;;;;;;5110234;28;20374;-79
2021/03/31 04:56:17;;;;;;;3.28;1.00;;;21.30;85.00;;;;;;5109583;28;20410;-78
2021/03/31 04:58:44;;;;;;;3.72;0.90;;;21.30;76.70;;;;;;5108674;28;20771;-78
2021/03/31 05:01:11;;;;;;;4.30;0.77;;;21.30;78.00;;;;;;5076096;28;20435;-78
2021/03/31 05:03:38;;;;;;;4.57;1.00;;;21.20;78.10;;;;;;5109977;28;20389;-79
2021/03/31 05:06:06;;;;;;;3.20;1.08;;;21.30;78.40;;;;;;5100213;28;20376;-79
2021/03/31 05:08:33;;;;;;;4.18;0.80;;;21.30;76.10;;;;;;5105487;28;20383;-79
2021/03/31 05:11:00;;;;;;;2.65;0.80;;;21.20;73.20;;;;;;5077038;28;20900;-79
2021/03/31 05:13:27;;;;;;;3.42;0.95;;;21.20;71.10;;;;;;5090129;28;20467;-80
2021/03/31 05:15:54;;;;;;;5.15;1.05;;;21.10;74.80;;;;;;5095959;28;20816;-78
2021/03/31 05:18:21;;;;;;;3.33;0.88;;;21.00;73.80;;;;;;5089496;28;20396;-78
2021/03/31 05:20:48;;;;;;;4.90;1.00;;;21.00;77.00;;;;;;5100817;28;20436;-79
2021/03/31 05:23:14;;;;;;;9.30;1.02;;;20.90;78.10;;;;;;5108317;28;20413;-79
2021/03/31 05:25:42;;;;;;;6.05;1.25;;;20.90;78.10;;;;;;5109068;28;20386;-78
2021/03/31 05:28:09;;;;;;;4.00;0.80;;;20.90;79.80;;;;;;5108562;28;20762;-78
2021/03/31 05:30:36;;;;;;;3.92;1.00;;;20.90;81.00;;;;;;5109162;28;20908;-78
2021/03/31 05:33:03;;;;;;;3.33;0.82;;;20.90;82.60;;;;;;5108641;28;20869;-78
2021/03/31 05:35:30;;;;;;;3.67;1.00;;;20.90;82.30;;;;;;5109763;28;20386;-78
2021/03/31 05:37:57;;;;;;;5.30;1.15;;;20.80;83.20;;;;;;5109757;28;20446;-79
2021/03/31 05:40:24;;;;;;;4.30;0.90;;;20.80;84.20;;;;;;5107863;28;20395;-78
2021/03/31 05:42:56;;;;;;;3.87;0.97;;;20.80;87.50;;;;;;5109783;28;20359;-78
2021/03/31 05:45:23;;;;;;;6.07;1.13;;;20.80;82.60;;;;;;5109605;28;20870;-78
2021/03/31 05:47:50;;;;;;;5.13;1.40;;;20.80;83.50;;;;;;5106128;28;20389;-79
2021/03/31 05:50:17;;;;;;;5.93;1.17;;;20.70;82.60;;;;;;5102490;28;20393;-78
2021/03/31 05:52:46;;;;;;;2.80;0.90;;;20.60;81.90;;;;;;5104968;28;20378;-78
2021/03/31 05:55:15;;;;;;;4.30;1.00;;;20.50;81.80;;;;;;5081162;28;20386;-78
2021/03/31 05:57:43;;;;;;;5.03;1.15;;;20.50;84.10;;;;;;5089119;28;20394;-79
2021/03/31 06:00:18;;;;;;;4.55;1.20;;;20.50;83.80;;;;;;5101317;28;20391;-78
2021/03/31 06:02:49;;;;;;;3.95;0.98;;;20.50;83.70;;;;;;5084734;28;20379;-79
2021/03/31 06:05:18;;;;;;;5.05;1.10;;;20.50;84.90;;;;;;5108495;28;20382;-80
2021/03/31 06:07:46;;;;;;;7.75;1.30;;;20.50;83.90;;;;;;5108509;28;20374;-79
2021/03/31 06:10:24;;;;;;;3.65;1.10;;;20.30;85.20;;;;;;5091259;28;20440;-78
2021/03/31 06:12:57;;;;;;;4.47;1.48;;;20.30;87.00;;;;;;5109314;28;20367;-79
2021/03/31 06:15:35;;;;;;;6.00;1.70;;;20.20;86.80;;;;;;5086167;28;20391;-79
2021/03/31 06:18:15;;;;;;;3.20;0.90;;;20.10;88.10;;;;;;5089778;28;21047;-80
2021/03/31 06:21:03;;;;;;;5.60;1.20;;;20.10;88.50;;;;;;5099151;28;20387;-79
2021/03/31 06:23:47;;;;;;;5.65;1.15;;;20.10;88.60;;;;;;5106472;28;20395;-81
2021/03/31 06:26:18;;;;;;;4.65;1.27;;;20.00;87.80;;;;;;5107756;28;20416;-79
2021/03/31 06:28:51;;;;;;;5.13;1.15;;;19.90;88.60;;;;;;5107660;28;20390;-79
2021/03/31 06:31:18;;;;;;;4.10;1.13;;;19.90;87.50;;;;;;5108094;28;20383;-81
2021/03/31 06:33:47;;;;;;;3.45;0.88;;;19.90;87.30;;;;;;5089060;28;20532;-79
2021/03/31 06:36:17;;;;;;;4.20;1.20;;;19.80;88.50;;;;;;5090679;28;20386;-79
2021/03/31 06:38:47;;;;;;;6.55;1.10;;;19.80;89.20;;;;;;5109152;28;20417;-79
2021/03/31 06:41:34;;;;;;;5.83;1.03;;;19.70;87.90;;;;;;5101341;28;20392;-79
2021/03/31 06:44:23;;;;;;;4.82;1.30;;;19.70;87.70;;;;;;5094344;28;20386;-78
2021/03/31 06:47:07;;;;;;;5.30;1.00;;;19.60;87.20;;;;;;5095626;28;20464;-79
2021/03/31 06:49:34;;;;;;;4.10;0.90;;;19.60;88.00;;;;;;5104169;28;20401;-79
2021/03/31 06:52:06;;;;;;;4.93;1.03;;;19.60;88.10;;;;;;5094070;28;21496;-79
2021/03/31 06:54:59;;;;;;;4.05;1.20;;;19.50;88.10;;;;;;5096161;28;20500;-78
2021/03/31 06:57:34;;;;;;;4.60;0.82;;;19.40;87.50;;;;;;5092578;28;20386;-79
2021/03/31 07:00:11;;;;;;;6.18;1.15;;;19.40;87.20;;;;;;5104603;28;20430;-78
2021/03/31 07:02:42;;;;;;;3.42;1.00;;;19.30;87.60;;;;;;5111948;28;20390;-78
2021/03/31 07:05:10;;;;;;;4.40;1.05;;;19.20;85.90;;;;;;5108897;28;20434;-78
2021/03/31 07:07:41;;;;;;;3.83;1.05;;;19.20;85.60;;;;;;5094220;28;20387;-78
2021/03/31 07:10:12;;;;;;;3.53;1.00;;;19.10;85.70;;;;;;5112577;28;20560;-78
2021/03/31 07:12:50;;;;;;;5.13;1.10;;;19.10;85.20;;;;;;5112750;28;20887;-78
2021/03/31 07:15:21;;;;;;;3.77;0.80;;;19.00;85.30;;;;;;5109283;28;20753;-78
2021/03/31 07:17:56;;;;;;;2.75;0.90;;;18.90;85.90;;;;;;5111704;28;20414;-78
2021/03/31 07:20:25;;;;;;;4.18;0.75;;;18.90;85.80;;;;;;5112506;28;20928;-77
2021/03/31 07:22:53;;;;;;;2.25;0.80;;;18.90;84.80;;;;;;5109628;28;20399;-77
2021/03/31 07:25:23;;;;;;;5.90;1.08;;;18.90;85.90;;;;;;5112506;28;20382;-78
2021/03/31 07:27:51;;;;;;;2.97;1.00;;;18.80;86.00;;;;;;5111977;28;20390;-77
2021/03/31 07:30:22;;;;;;;2.45;0.95;;;18.80;86.90;;;;;;5111059;28;20484;-78
2021/03/31 07:33:18;;;;;;;3.08;0.90;;;18.70;87.00;;;;;;5111188;27;20393;-80
2021/03/31 07:35:46;;;;;;;4.30;1.00;;;18.60;88.10;;;;;;5111405;28;20383;-78
2021/03/31 07:38:16;;;;;;;3.60;0.68;;;18.50;89.30;;;;;;5109729;27;20407;-77
2021/03/31 07:40:43;;;;;;;4.40;0.93;;;18.40;90.10;;;;;;5107050;28;20399;-77
2021/03/31 07:43:25;;;;;;;3.80;1.00;;;18.40;90.20;;;;;;5109159;28;20470;-78
2021/03/31 07:45:57;;;;;;;2.20;0.70;;;18.30;90.90;;;;;;5107513;28;20456;-77
2021/03/31 07:48:26;;;;;;;3.67;0.77;;;18.30;91.20;;;;;;5099636;28;20915;-77
2021/03/31 07:50:53;;;;;;;2.92;1.00;;;18.20;91.80;;;;;;5111089;28;20391;-77
2021/03/31 07:53:23;;;;;;;4.90;1.10;;;18.20;92.70;;;;;;5109331;28;20472;-78
2021/03/31 07:55:52;;;;;;;3.97;1.10;;;18.20;92.80;;;;;;5108797;28;20378;-77
2021/03/31 07:58:28;;;;;;;4.53;1.08;;;18.10;93.30;;;;;;5101120;28;20391;-78
2021/03/31 08:01:00;;;;;;;7.25;1.27;;;18.10;94.00;;;;;;5111075;28;20749;-78
2021/03/31 08:03:31;;;;;;;3.15;1.10;;;18.00;94.50;;;;;;5111297;28;20379;-78
2021/03/31 08:06:22;;;;;;;5.18;1.30;;;18.00;95.60;;;;;;5108896;28;20896;-77
2021/03/31 08:08:52;;;;;;;4.82;1.20;;;18.00;95.90;;;;;;5091690;28;20376;-77
2021/03/31 08:11:37;;;;;;;4.28;0.80;;;18.00;96.60;;;;;;5107917;28;20695;-77
2021/03/31 08:14:05;;;;;;;5.50;1.60;;;17.90;97.50;;;;;;5085732;28;20460;-77
2021/03/31 08:16:41;;;;;;;4.75;1.13;;;17.90;98.60;;;;;;5105590;28;20895;-78
2021/03/31 08:19:19;;;;;;;4.53;1.00;;;17.80;99.20;;;;;;5104893;28;20442;-77
2021/03/31 08:21:48;;;;;;;4.47;1.43;;;17.80;99.60;;;;;;5092883;28;20489;-78
2021/03/31 08:24:17;;;;;;;3.28;1.10;;;17.80;99.90;;;;;;5106952;28;20465;-77
2021/03/31 08:26:45;;;;;;;5.43;1.30;;;17.80;99.90;;;;;;5099630;28;20385;-77
2021/03/31 08:29:18;;;;;;;4.50;1.20;;;17.70;99.90;;;;;;5110184;28;20447;-78
2021/03/31 08:31:47;;;;;;;6.85;1.75;;;17.70;99.90;;;;;;5091858;28;20428;-77
2021/03/31 08:34:16;;;;;;;4.15;1.02;;;17.60;99.90;;;;;;5110271;28;20394;-77
2021/03/31 08:36:43;;;;;;;5.35;1.10;;;17.60;99.90;;;;;;5109366;28;20399;-78
2021/03/31 08:39:12;;;;;;;4.90;1.35;;;17.50;99.90;;;;;;5109620;28;20411;-78
2021/03/31 08:41:45;;;;;;;5.32;1.17;;;17.50;99.90;;;;;;5109794;28;20502;-78
2021/03/31 08:44:28;;;;;;;6.03;1.40;;;17.40;99.90;;;;;;5110951;28;20358;-78
2021/03/31 08:47:08;;;;;;;6.20;1.45;;;17.30;99.90;;;;;;5110180;28;20382;-78
2021/03/31 08:49:35;;;;;;;8.32;1.40;;;17.30;99.90;;;;;;5086068;28;20925;-78
2021/03/31 08:52:06;;;;;;;3.30;1.27;;;17.20;99.90;;;;;;5090431;28;20388;-78
2021/03/31 08:54:43;;;;;;;6.47;1.27;;;17.10;99.90;;;;;;5090013;28;20377;-78
2021/03/31 08:57:25;;;;;;;6.05;1.40;;;17.00;99.90;;;;;;5090143;28;20927;-78
2021/03/31 08:59:54;;;;;;;6.72;1.20;;;17.00;99.90;;;;;;5097001;28;20398;-78
2021/03/31 09:02:24;;;;;;;5.78;1.45;;;16.90;99.90;;;;;;5110034;28;20363;-80
2021/03/31 09:04:52;;;;;;;6.75;1.30;;;16.90;99.90;;;;;;5109903;28;20386;-78
2021/03/31 09:07:19;;;;;;;4.00;1.00;;;16.80;99.90;;;;;;5105160;28;20472;-79
2021/03/31 09:09:48;;;;;;;6.93;1.70;;;16.70;99.90;;;;;;5101162;28;20943;-79
2021/03/31 09:12:18;;;;;;;6.63;1.50;;;16.70;99.90;;;;;;5107002;28;20745;-79
2021/03/31 09:14:50;;;;;;;5.20;1.50;;;16.60;99.90;;;;;;5104069;28;20468;-80
2021/03/31 09:17:22;;;;;;;7.43;1.70;;;16.60;99.90;;;;;;5107139;28;20414;-80
2021/03/31 09:19:54;;;;;;;6.68;1.75;;;16.50;99.90;;;;;;5086272;28;20415;-79
2021/03/31 09:22:23;;;;;;;7.47;1.52;;;16.40;99.90;;;;;;5101635;28;20371;-81
2021/03/31 09:24:59;;;;;;;5.95;1.40;;;16.40;99.90;;;;;;5105892;28;20473;-79
2021/03/31 09:27:28;;;;;;;7.28;1.58;;;16.30;99.90;;;;;;5088761;28;20391;-80
2021/03/31 09:29:58;;;;;;;5.95;1.75;;;16.30;99.90;;;;;;5103815;28;20393;-79
2021/03/31 09:32:33;;;;;;;4.10;1.17;;;16.30;99.90;;;;;;5107176;28;20358;-79
2021/03/31 09:35:15;;;;;;;4.65;1.52;;;16.20;99.90;;;;;;5104934;28;20398;-79
2021/03/31 09:37:44;;;;;;;4.55;1.40;;;16.20;99.90;;;;;;5104210;28;20769;-79
2021/03/31 09:40:20;;;;;;;6.32;1.50;;;16.40;99.90;;;;;;5100742;28;20910;-78
2021/03/31 09:42:53;;;;;;;5.90;1.50;;;16.40;99.90;;;;;;5066293;28;20897;-81
2021/03/31 09:45:25;;;;;;;6.17;1.40;;;16.50;99.90;;;;;;5065358;28;21318;-79
2021/03/31 09:47:53;;;;;;;3.80;1.20;;;16.50;99.90;;;;;;5084039;28;22209;-79
2021/03/31 09:50:25;;;;;;;5.10;1.57;;;16.40;99.90;;;;;;5074434;28;20527;-79
2021/03/31 09:52:56;;;;;;;4.45;1.42;;;16.40;99.90;;;;;;5080892;28;20441;-79
2021/03/31 09:55:24;;;;;;;5.55;1.63;;;16.30;99.90;;;;;;5081785;28;20445;-79
2021/03/31 09:57:52;;;;;;;5.93;1.58;;;16.20;99.90;;;;;;5076776;28;20407;-79
2021/03/31 10:00:21;;;;;;;3.35;1.40;;;16.20;99.90;;;;;;5085779;28;20406;-79
2021/03/31 10:02:49;;;;;;;5.85;1.65;;;16.20;99.90;;;;;;5080827;28;20417;-79
2021/03/31 10:05:21;;;;;;;6.53;1.63;;;16.30;99.90;;;;;;5074616;28;20400;-80
2021/03/31 10:07:58;;;;;;;6.28;1.85;;;16.20;99.90;;;;;;5083098;28;20752;-81
2021/03/31 10:10:46;;;;;;;5.82;1.60;;;16.20;99.90;;;;;;5087971;28;20380;-79
2021/03/31 10:13:15;;;;;;;6.20;1.60;;;16.20;99.90;;;;;;5088082;28;20754;-80
2021/03/31 10:15:55;;;;;;;4.85;1.58;;;16.10;99.90;;;;;;5089451;28;20909;-80
2021/03/31 10:18:23;;;;;;;4.97;1.40;;;16.10;99.90;;;;;;5101668;28;20428;-80
2021/03/31 10:20:50;;;;;;;7.78;1.55;;;16.10;99.90;;;;;;5077446;28;20378;-78
2021/03/31 10:23:31;;;;;;;4.93;1.45;;;16.10;99.90;;;;;;5078850;28;20376;-80
2021/03/31 10:26:24;;;;;;;6.95;1.67;;;16.00;99.90;;;;;;5084640;28;20608;-79
2021/03/31 10:28:55;;;;;;;7.90;1.42;;;16.00;99.90;;;;;;5082225;28;20372;-80
2021/03/31 10:31:33;;;;;;;4.03;1.40;;;16.10;99.90;;;;;;5080061;28;20390;-80
2021/03/31 10:34:01;;;;;;;3.90;1.60;;;16.20;99.90;;;;;;5082604;28;20474;-80
2021/03/31 10:36:44;;;;;;;6.47;1.60;;;16.20;99.90;;;;;;5084665;28;20442;-79
2021/03/31 10:50:01;;;;;;;6.22;1.60;;;16.50;99.90;;;;;;5108287;28;20390;-79
2021/03/31 10:52:34;;;;;;;5.72;1.70;;;16.50;99.90;;;;;;5106938;28;20386;-79
2021/03/31 10:55:01;;;;;;;6.32;1.58;;;16.40;99.90;;;;;;5107348;28;20738;-79
2021/03/31 10:57:28;;;;;;;8.10;1.80;;;16.40;99.90;;;;;;5104531;28;20379;-79
2021/03/31 10:59:55;;;;;;;7.93;1.65;;;16.30;99.90;;;;;;5099363;28;20777;-80
2021/03/31 11:02:22;;;;;;;4.68;1.58;;;16.20;99.90;;;;;;5096804;28;20891;-79
2021/03/31 11:04:49;;;;;;;5.85;1.50;;;16.20;99.90;;;;;;5103334;28;20390;-79
2021/03/31 11:07:17;;;;;;;6.82;1.70;;;16.10;99.90;;;;;;5108603;28;20367;-80
2021/03/31 11:09:44;;;;;;;4.47;1.40;;;16.10;99.90;;;;;;5107596;28;20477;-79
2021/03/31 11:12:11;;;;;;;3.90;1.67;;;16.10;99.90;;;;;;5107454;28;20422;-78
2021/03/31 11:14:38;;;;;;;4.32;1.50;;;16.10;99.90;;;;;;5088376;28;20391;-79
2021/03/31 11:17:17;;;;;;;7.40;1.98;;;16.10;99.90;;;;;;5108135;28;20406;-79
2021/03/31 11:19:53;;;;;;;5.03;1.45;;;16.10;99.90;;;;;;5108868;28;20414;-78
2021/03/31 11:27:51;;;;;;;6.53;1.50;;;16.20;99.90;;;;;;5104518;28;20460;-79
2021/03/31 11:30:18;;;;;;;5.60;1.73;;;16.10;99.90;;;;;;5100828;28;20739;-80
2021/03/31 11:32:45;;;;;;;7.90;1.88;;;16.20;99.90;;;;;;5109159;27;20397;-79
2021/03/31 11:35:13;;;;;;;6.43;1.55;;;16.20;99.90;;;;;;5109858;28;20417;-80
2021/03/31 11:37:40;;;;;;;8.45;1.83;;;16.20;99.90;;;;;;5109320;28;20389;-79
2021/03/31 11:40:08;;;;;;;6.50;1.50;;;16.20;99.90;;;;;;5091942;28;20819;-79
2021/03/31 11:42:35;;;;;;;5.60;1.80;;;16.30;99.90;;;;;;5110912;28;20448;-81
2021/03/31 11:45:02;;;;;;;6.53;1.70;;;16.20;99.90;;;;;;5110578;27;20426;-80
2021/03/31 11:47:29;;;;;;;9.52;1.80;;;16.30;99.90;;;;;;5110308;28;20896;-79
2021/03/31 11:49:56;;;;;;;7.03;1.75;;;16.20;99.90;;;;;;5109308;28;20386;-81
2021/03/31 11:52:23;;;;;;;6.90;1.50;;;16.30;99.90;;;;;;5091368;28;20369;-80
2021/03/31 11:54:50;;;;;;;6.97;2.10;;;16.20;99.90;;;;;;5110053;28;20394;-80
2021/03/31 11:57:17;;;;;;;3.13;1.27;;;16.20;99.90;;;;;;5111473;28;20395;-80
2021/03/31 11:59:44;;;;;;;5.63;1.98;;;16.20;99.90;;;;;;5087380;28;20404;-79
2021/03/31 12:02:11;;;;;;;4.95;1.33;;;16.20;99.90;;;;;;5093055;28;20389;-79
2021/03/31 12:04:39;;;;;;;5.70;1.58;;;16.30;99.90;;;;;;5088157;28;20398;-79
2021/03/31 12:07:08;;;;;;;5.03;1.40;;;16.30;99.90;;;;;;5110921;28;20787;-80
2021/03/31 12:09:42;;;;;;;6.20;1.60;;;16.40;99.90;;;;;;5106617;27;20421;-79
2021/03/31 12:12:11;;;;;;;5.43;1.65;;;16.40;99.90;;;;;;5113191;27;20391;-80
2021/03/31 12:14:38;;;;;;;6.63;1.50;;;16.40;99.90;;;;;;5110075;28;20409;-81
2021/03/31 12:17:06;;;;;;;6.17;1.90;;;16.30;99.90;;;;;;5108602;27;20443;-81
2021/03/31 12:19:33;;;;;;;6.18;1.92;;;16.30;99.90;;;;;;5109521;28;20478;-81
2021/03/31 12:22:01;;;;;;;9.50;2.38;;;16.10;99.90;;;;;;5104859;28;20914;-81
2021/03/31 12:24:28;;;;;;;7.93;2.40;;;15.90;99.90;;;;;;5103108;28;20408;-79
2021/03/31 12:27:02;;;;;;;9.07;2.33;;;15.80;99.90;;;;;;5105813;28;20373;-79
2021/03/31 12:29:29;;;;;;;7.97;2.35;;;15.50;99.90;;;;;;5105483;28;21035;-80
2021/03/31 12:31:56;;;;;;;8.27;2.33;;;15.30;99.90;;;;;;5089967;28;20466;-79
2021/03/31 12:34:26;;;;;;;7.57;2.60;;;15.30;99.90;;;;;;5111101;28;20463;-79
2021/03/31 12:36:54;;;;;;;8.30;2.70;;;15.40;99.90;;;;;;5108705;28;20389;-80
2021/03/31 12:39:21;;;;;;;9.65;2.75;;;15.30;99.90;;;;;;5096289;28;20419;-79
2021/03/31 12:41:49;;;;;;;7.43;3.20;;;15.20;99.90;;;;;;5073241;28;20463;-79
2021/03/31 12:44:16;;;;;;;11.60;3.35;;;15.20;99.90;;;;;;5094022;28;20407;-79
2021/03/31 12:46:43;;;;;;;6.82;2.40;;;15.20;99.90;;;;;;5103972;27;20393;-81
2021/03/31 12:49:10;;;;;;;7.07;2.60;;;15.20;99.90;;;;;;5089272;28;20404;-80
2021/03/31 12:51:44;;;;;;;13.55;3.08;;;15.00;99.90;;;;;;5103907;28;20394;-81
2021/03/31 12:56:50;;;;;;;8.18;2.75;;;14.90;99.90;;;;;;5109503;28;20397;-80
2021/03/31 12:59:17;;;;;;;13.82;3.33;;;14.80;99.90;;;;;;5108894;28;20884;-80
2021/03/31 13:01:45;;;;;;;11.30;3.15;;;14.80;99.90;;;;;;5106427;27;20477;-79
2021/03/31 13:04:13;;;;;;;10.05;3.08;;;14.70;99.90;;;;;;5109255;28;20451;-80
2021/03/31 13:06:40;;;;;;;10.27;3.30;;;14.70;99.90;;;;;;5107173;28;20360;-80
2021/03/31 13:09:08;;;;;;;9.77;3.00;;;14.60;99.90;;;;;;5108751;28;20431;-80
2021/03/31 13:11:36;;;;;;;9.27;2.70;;;14.70;99.90;;;;;;5109369;28;20371;-80
2021/03/31 13:24:43;;;;;;;7.70;2.42;;;15.10;99.90;;;;;;5109376;28;20471;-80
2021/03/31 13:32:25;;;;;;;9.80;2.90;;;15.30;99.90;;;;;;5105937;28;20402;-80
2021/03/31 13:34:56;;;;;;;11.30;3.63;;;15.30;99.90;;;;;;5108912;28;20465;-81
2021/03/31 13:37:30;;;;;;;10.15;3.22;;;15.40;99.90;;;;;;5108213;28;20473;-79